createdAt,value
2022-11-27T00:01:11.686Z,93.40
2022-11-27T00:04:53.401Z,93.60
2022-11-27T00:08:35.129Z,93.40
2022-11-27T00:12:16.882Z,93.50
2022-11-27T00:15:58.649Z,93.50
2022-11-27T00:19:40.593Z,93.50
2022-11-27T00:23:22.437Z,93.60
2022-11-27T00:27:04.209Z,93.60
2022-11-27T00:30:46.150Z,93.50
2022-11-27T00:34:27.946Z,93.50
2022-11-27T00:38:09.670Z,93.50
2022-11-27T00:41:51.414Z,93.50
2022-11-27T00:45:33.097Z,93.60
2022-11-27T00:49:15.185Z,93.60
2022-11-27T00:52:57.064Z,93.60
2022-11-27T00:56:39.361Z,93.50
2022-11-27T01:00:21.173Z,93.50
2022-11-27T01:04:03.652Z,93.50
2022-11-27T01:07:45.394Z,93.40
2022-11-27T01:11:30.823Z,93.40
2022-11-27T01:15:12.533Z,93.50
2022-11-27T01:18:55.457Z,93.40
2022-11-27T01:22:37.156Z,93.40
2022-11-27T01:26:20.235Z,93.30
2022-11-27T01:30:02.029Z,93.30
2022-11-27T01:33:44.320Z,93.30
2022-11-27T01:37:25.993Z,93.40
2022-11-27T01:41:14.551Z,93.40
2022-11-27T01:44:56.612Z,93.40
2022-11-27T01:48:38.286Z,93.40
2022-11-27T01:52:28.164Z,93.40
2022-11-27T01:56:09.885Z,93.70
2022-11-27T01:59:52.081Z,93.50
2022-11-27T02:03:33.930Z,93.50
2022-11-27T02:07:15.731Z,93.50
2022-11-27T02:11:02.937Z,93.50
2022-11-27T02:15:18.694Z,93.60
2022-11-27T02:19:29.566Z,93.70
2022-11-27T02:23:30.052Z,93.50
2022-11-27T02:27:26.811Z,93.50
2022-11-27T02:31:38.225Z,93.50
2022-11-27T02:35:23.523Z,93.50
2022-11-27T02:39:07.842Z,93.30
2022-11-27T02:42:57.935Z,93.40
2022-11-27T02:46:39.683Z,93.50
2022-11-27T02:50:22.573Z,93.40
2022-11-27T02:54:06.353Z,93.40
2022-11-27T02:57:47.942Z,93.40
2022-11-27T03:01:31.789Z,93.30
2022-11-27T03:05:15.089Z,93.30
2022-11-27T03:09:04.096Z,93.20
2022-11-27T03:12:47.090Z,93.30
2022-11-27T03:16:28.809Z,93.20
2022-11-27T03:20:28.053Z,93.30
2022-11-27T03:24:10.331Z,93.50
2022-11-27T03:28:03.865Z,93.40
2022-11-27T03:31:45.636Z,93.60
2022-11-27T03:35:27.669Z,93.60
2022-11-27T03:39:09.432Z,93.40
2022-11-27T03:43:01.389Z,93.40
2022-11-27T03:47:01.913Z,93.70
2022-11-27T03:51:08.888Z,93.50
2022-11-27T03:55:16.661Z,93.60
2022-11-27T03:59:18.222Z,93.60
2022-11-27T04:02:59.931Z,93.50
2022-11-27T04:06:41.591Z,93.60
2022-11-27T04:10:23.327Z,93.30
2022-11-27T04:14:05.019Z,93.30
2022-11-27T04:17:46.677Z,93.30
2022-11-27T04:21:28.401Z,93.30
2022-11-27T04:25:10.075Z,93.40
2022-11-27T04:28:51.831Z,93.30
2022-11-27T04:32:33.592Z,93.30
2022-11-27T04:36:15.276Z,93.60
2022-11-27T04:39:56.953Z,93.30
2022-11-27T04:43:38.862Z,93.40
2022-11-27T04:47:20.550Z,93.40
2022-11-27T04:51:02.309Z,93.30
2022-11-27T04:54:46.097Z,93.60
2022-11-27T04:58:27.767Z,93.20
2022-11-27T05:02:09.769Z,92.40
2022-11-27T05:05:56.422Z,92.70
2022-11-27T05:09:38.089Z,91.80
2022-11-27T05:13:19.813Z,91.60
2022-11-27T05:17:01.629Z,91.60
2022-11-27T05:20:43.369Z,91.60
2022-11-27T05:24:26.371Z,91.70
2022-11-27T05:28:08.046Z,91.70
2022-11-27T05:31:49.788Z,92.00
2022-11-27T05:35:31.495Z,91.90
2022-11-27T05:39:13.267Z,92.00
2022-11-27T05:42:54.971Z,91.70
2022-11-27T05:46:36.754Z,91.90
2022-11-27T05:50:18.742Z,92.10
2022-11-27T05:54:00.441Z,92.20
2022-11-27T05:57:42.106Z,92.00
2022-11-27T06:01:23.981Z,92.10
2022-11-27T06:05:06.116Z,92.10
2022-11-27T06:08:47.935Z,92.00
2022-11-27T06:12:32.021Z,92.00
2022-11-27T06:16:15.451Z,92.20
2022-11-27T06:19:57.227Z,92.20
2022-11-27T06:23:40.239Z,92.20
2022-11-27T06:27:21.962Z,92.20
2022-11-27T06:31:21.241Z,92.20
2022-11-27T06:35:03.017Z,92.20
2022-11-27T06:38:45.094Z,92.20
2022-11-27T06:42:29.909Z,92.20
2022-11-27T06:46:13.823Z,92.50
2022-11-27T06:49:55.605Z,92.20
2022-11-27T06:53:37.575Z,92.30
2022-11-27T06:57:19.261Z,92.50
2022-11-27T07:01:05.575Z,92.20
2022-11-27T07:05:06.308Z,92.30
2022-11-27T07:08:48.038Z,92.30
2022-11-27T07:12:29.731Z,92.30
2022-11-27T07:16:11.709Z,92.30
2022-11-27T07:19:53.471Z,92.20
2022-11-27T07:23:35.658Z,92.30
2022-11-27T07:27:17.325Z,92.20
2022-11-27T07:30:59.176Z,92.20
2022-11-27T07:34:40.987Z,92.20
2022-11-27T07:38:22.745Z,92.20
2022-11-27T07:42:36.491Z,92.20
2022-11-27T07:46:07.195Z,92.20
2022-11-27T07:49:48.893Z,92.20
2022-11-27T07:53:30.622Z,92.20
2022-11-27T07:57:12.385Z,92.20
2022-11-27T08:00:54.114Z,92.10
2022-11-27T08:04:35.893Z,92.10
2022-11-27T08:08:17.660Z,92.10
2022-11-27T08:11:59.373Z,92.00
2022-11-27T08:15:41.166Z,92.10
2022-11-27T08:19:22.953Z,92.30
2022-11-27T08:23:04.814Z,92.10
2022-11-27T08:26:46.487Z,92.10
2022-11-27T08:30:28.657Z,92.00
2022-11-27T08:34:10.352Z,91.90
2022-11-27T08:37:52.090Z,92.00
2022-11-27T08:41:33.769Z,91.80
2022-11-27T08:45:15.508Z,91.90
2022-11-27T08:48:59.233Z,91.90
2022-11-27T08:52:40.867Z,91.80
2022-11-27T08:56:24.350Z,91.90
2022-11-27T09:00:06.906Z,91.70
2022-11-27T09:03:48.852Z,91.70
2022-11-27T09:07:30.661Z,91.80
2022-11-27T09:11:12.738Z,91.60
2022-11-27T09:14:54.559Z,91.60
2022-11-27T09:18:36.276Z,91.60
2022-11-27T09:22:19.027Z,91.60
2022-11-27T09:26:05.088Z,91.50
2022-11-27T09:29:46.803Z,91.50
2022-11-27T09:33:29.721Z,91.80
2022-11-27T09:37:11.521Z,91.50
2022-11-27T09:40:59.182Z,91.40
2022-11-27T09:44:49.369Z,91.40
2022-11-27T09:48:36.532Z,91.40
2022-11-27T09:52:25.573Z,91.20
2022-11-27T09:56:07.281Z,91.60
2022-11-27T09:59:50.658Z,91.20
2022-11-27T10:03:32.784Z,91.20
2022-11-27T10:07:39.694Z,91.10
2022-11-27T10:12:00.976Z,91.20
2022-11-27T10:16:07.624Z,91.10
2022-11-27T10:20:11.875Z,90.80
2022-11-27T10:24:03.688Z,91.00
2022-11-27T10:28:05.737Z,90.80
2022-11-27T10:31:49.707Z,90.80
2022-11-27T10:35:31.773Z,90.60
2022-11-27T10:39:17.380Z,90.70
2022-11-27T10:43:10.345Z,90.70
2022-11-27T10:46:52.473Z,90.60
2022-11-27T10:50:34.328Z,90.60
2022-11-27T10:54:28.841Z,90.60
2022-11-27T10:58:10.507Z,90.60
2022-11-27T11:01:55.507Z,90.50
2022-11-27T11:06:04.219Z,90.40
2022-11-27T11:09:38.905Z,90.50
2022-11-27T11:13:27.858Z,90.50
2022-11-27T11:17:15.752Z,90.30
2022-11-27T11:20:59.462Z,90.20
2022-11-27T11:24:46.039Z,90.30
2022-11-27T11:28:27.719Z,90.70
2022-11-27T11:32:13.877Z,90.10
2022-11-27T11:35:57.292Z,89.80
2022-11-27T11:39:46.158Z,90.00
2022-11-27T11:43:36.331Z,89.40
2022-11-27T11:47:18.796Z,89.60
2022-11-27T11:51:04.723Z,89.40
2022-11-27T11:55:03.698Z,89.20
2022-11-27T11:58:53.619Z,89.70
2022-11-27T12:03:01.473Z,89.30
2022-11-27T12:06:51.269Z,88.80
2022-11-27T12:10:38.158Z,88.10
2022-11-27T12:14:40.737Z,87.70
2022-11-27T12:18:47.972Z,88.20
2022-11-27T12:22:48.333Z,88.10
2022-11-27T12:26:56.039Z,88.20
2022-11-27T12:31:03.628Z,87.10
2022-11-27T12:35:01.208Z,87.20
2022-11-27T12:38:48.910Z,87.40
2022-11-27T12:43:10.849Z,87.10
2022-11-27T12:46:58.645Z,86.80
2022-11-27T12:50:56.597Z,87.80
2022-11-27T12:54:48.166Z,87.50
2022-11-27T12:58:32.977Z,87.40
2022-11-27T13:02:32.871Z,86.80
2022-11-27T13:06:17.545Z,87.10
2022-11-27T13:10:26.106Z,87.90
2022-11-27T13:14:11.214Z,86.50
2022-11-27T13:17:58.820Z,86.90
2022-11-27T13:21:40.656Z,86.90
2022-11-27T13:25:22.428Z,87.00
2022-11-27T13:29:23.476Z,86.90
2022-11-27T13:33:07.077Z,87.20
2022-11-27T13:36:56.259Z,87.00
2022-11-27T13:40:40.497Z,86.80
2022-11-27T13:44:24.930Z,87.00
2022-11-27T13:48:25.289Z,86.90
2022-11-27T13:52:14.573Z,86.70
2022-11-27T13:55:57.688Z,86.90
2022-11-27T13:59:39.766Z,86.40
2022-11-27T14:03:26.372Z,86.70
2022-11-27T14:07:16.115Z,86.20
2022-11-27T14:10:59.733Z,86.30
2022-11-27T14:14:41.994Z,86.80
2022-11-27T14:18:23.852Z,86.60
2022-11-27T14:22:48.521Z,86.80
2022-11-27T14:26:40.625Z,87.10
2022-11-27T14:30:39.641Z,87.40
2022-11-27T14:34:34.330Z,88.20
2022-11-27T14:38:16.423Z,87.20
2022-11-27T14:42:07.966Z,87.40
2022-11-27T14:45:54.398Z,87.70
2022-11-27T14:49:36.111Z,87.40
2022-11-27T14:53:20.746Z,87.50
2022-11-27T14:57:02.559Z,87.50
2022-11-27T15:00:51.854Z,87.70
2022-11-27T15:04:38.194Z,87.70
2022-11-27T15:08:19.920Z,87.50
2022-11-27T15:12:29.630Z,87.40
2022-11-27T15:16:19.588Z,87.60
2022-11-27T15:20:01.995Z,87.20
2022-11-27T15:24:02.670Z,87.50
2022-11-27T15:27:45.906Z,87.70
2022-11-27T15:31:37.416Z,87.60
2022-11-27T15:35:27.645Z,87.30
2022-11-27T15:39:17.540Z,87.50
2022-11-27T15:43:00.273Z,87.40
2022-11-27T15:46:41.991Z,88.00
2022-11-27T15:50:23.658Z,88.60
2022-11-27T15:54:07.500Z,88.10
2022-11-27T15:57:49.261Z,88.10
2022-11-27T16:01:52.009Z,88.10
2022-11-27T16:05:33.854Z,88.20
2022-11-27T16:09:15.569Z,88.30
2022-11-27T16:12:58.841Z,88.30
2022-11-27T16:16:40.759Z,88.40
2022-11-27T16:20:22.479Z,88.60
2022-11-27T16:24:10.589Z,88.60
2022-11-27T16:27:54.584Z,88.20
2022-11-27T16:31:39.916Z,88.20
2022-11-27T16:35:21.702Z,88.20
2022-11-27T16:39:03.416Z,88.50
2022-11-27T16:42:45.364Z,88.40
2022-11-27T16:46:28.328Z,88.40
2022-11-27T16:50:10.318Z,88.40
2022-11-27T16:53:54.150Z,88.80
2022-11-27T16:57:35.822Z,89.60
2022-11-27T17:01:29.039Z,88.70
2022-11-27T17:05:10.810Z,88.90
2022-11-27T17:08:54.123Z,88.90
2022-11-27T17:12:37.037Z,88.80
2022-11-27T17:16:19.291Z,89.10
2022-11-27T17:20:01.084Z,89.10
2022-11-27T17:23:47.129Z,89.30
2022-11-27T17:27:28.856Z,89.40
2022-11-27T17:31:11.743Z,89.50
2022-11-27T17:34:53.665Z,89.50
2022-11-27T17:38:35.428Z,90.10
2022-11-27T17:42:22.465Z,89.70
2022-11-27T17:46:16.066Z,89.80
2022-11-27T17:49:57.820Z,90.00
2022-11-27T17:53:40.628Z,89.80
2022-11-27T17:57:22.396Z,89.90
2022-11-27T18:01:05.195Z,89.90
2022-11-27T18:04:48.147Z,89.90
2022-11-27T18:08:29.950Z,89.90
2022-11-27T18:12:12.745Z,89.80
2022-11-27T18:15:54.461Z,89.80
2022-11-27T18:19:36.213Z,89.80
2022-11-27T18:23:18.128Z,89.70
2022-11-27T18:27:09.161Z,89.70
2022-11-27T18:30:51.113Z,89.80
2022-11-27T18:34:33.353Z,89.80
2022-11-27T18:38:15.232Z,89.70
2022-11-27T18:41:57.226Z,89.60
2022-11-27T18:45:38.932Z,89.50
2022-11-27T18:49:22.866Z,89.30
2022-11-27T18:53:05.004Z,89.40
2022-11-27T18:56:46.677Z,89.40
2022-11-27T19:00:28.402Z,89.60
2022-11-27T19:04:11.003Z,89.50
2022-11-27T19:07:52.740Z,89.40
2022-11-27T19:11:35.144Z,89.30
2022-11-27T19:15:16.997Z,89.10
2022-11-27T19:18:59.117Z,88.90
2022-11-27T19:22:41.005Z,88.90
2022-11-27T19:26:24.058Z,89.00
2022-11-27T19:30:06.453Z,89.10
2022-11-27T19:33:55.533Z,89.20
2022-11-27T19:37:37.373Z,89.40
2022-11-27T19:41:19.060Z,89.60
2022-11-27T19:45:00.742Z,89.60
2022-11-27T19:52:48.344Z,89.70
2022-11-27T19:56:32.329Z,89.50
2022-11-27T20:00:14.377Z,89.50
2022-11-27T20:03:56.186Z,89.60
2022-11-27T20:07:37.922Z,89.50
2022-11-27T20:11:21.167Z,90.00
2022-11-27T20:15:07.668Z,89.60
2022-11-27T20:18:49.429Z,89.60
2022-11-27T20:22:32.560Z,89.70
2022-11-27T20:26:16.082Z,89.80
2022-11-27T20:30:00.035Z,90.00
2022-11-27T20:33:42.881Z,89.80
2022-11-27T20:37:24.609Z,89.70
2022-11-27T20:41:10.565Z,89.60
2022-11-27T20:44:53.485Z,89.60
2022-11-27T20:48:35.259Z,90.00
2022-11-27T20:52:20.465Z,89.70
2022-11-27T20:56:05.874Z,89.80
2022-11-27T20:59:47.553Z,89.90
2022-11-27T21:03:29.725Z,89.70
2022-11-27T21:07:11.827Z,89.70
2022-11-27T21:10:53.548Z,89.70
2022-11-27T21:14:36.122Z,89.80
2022-11-27T21:18:17.801Z,89.70
2022-11-27T21:22:00.689Z,89.80
2022-11-27T21:25:43.601Z,90.00
2022-11-27T21:29:27.719Z,90.00
2022-11-27T21:33:10.694Z,90.00
2022-11-27T21:36:52.408Z,90.00
2022-11-27T21:40:34.217Z,90.00
2022-11-27T21:44:17.887Z,90.00
2022-11-27T21:47:59.581Z,90.00
2022-11-27T21:51:42.541Z,90.00
2022-11-27T21:55:24.226Z,90.00
2022-11-27T21:59:10.396Z,90.10
2022-11-27T22:02:52.235Z,90.00
2022-11-27T22:06:38.836Z,90.00
2022-11-27T22:10:20.537Z,90.00
2022-11-27T22:14:06.654Z,89.90
2022-11-27T22:17:48.609Z,90.00
2022-11-27T22:21:30.870Z,90.00
2022-11-27T22:25:12.622Z,90.00
2022-11-27T22:28:54.372Z,90.00
2022-11-27T22:32:37.073Z,90.00
2022-11-27T22:36:22.114Z,90.00
2022-11-27T22:40:04.401Z,90.00
2022-11-27T22:43:46.159Z,90.00
2022-11-27T22:47:27.909Z,90.00
2022-11-27T22:51:09.714Z,90.00
2022-11-27T22:54:51.455Z,90.00
2022-11-27T22:58:36.057Z,90.10
2022-11-27T23:02:20.191Z,90.10
2022-11-27T23:06:01.935Z,90.10
2022-11-27T23:09:43.779Z,90.20
2022-11-27T23:13:25.497Z,90.20
2022-11-27T23:17:07.241Z,90.20
2022-11-27T23:20:48.987Z,90.20
2022-11-27T23:24:30.826Z,90.10
2022-11-27T23:28:12.493Z,90.10
2022-11-27T23:31:54.246Z,90.10
2022-11-27T23:35:36.010Z,90.20
2022-11-27T23:39:17.669Z,90.20
2022-11-27T23:42:59.352Z,90.20
2022-11-27T23:46:41.060Z,90.10
2022-11-27T23:50:22.749Z,90.10
2022-11-27T23:54:08.538Z,90.10
2022-11-27T23:57:50.209Z,90.20
